sensor_id;sensor_type;location;lat;lon;timestamp;P1;durP1;ratioP1;P2;durP2;ratioP2
12770;SDS011;6449;47.666;9.160;2022-11-20T00:01:16;8.40;;;6.10;;
12770;SDS011;6449;47.666;9.160;2022-11-20T00:06:13;6.33;;;5.33;;
12770;SDS011;6449;47.666;9.160;2022-11-20T00:11:09;7.23;;;4.90;;
12770;SDS011;6449;47.666;9.160;2022-11-20T00:16:08;8.53;;;5.50;;
12770;SDS011;6449;47.666;9.160;2022-11-20T00:21:04;6.03;;;5.43;;
12770;SDS011;6449;47.666;9.160;2022-11-20T00:26:02;7.27;;;5.33;;
12770;SDS011;6449;47.666;9.160;2022-11-20T00:31:00;8.37;;;5.00;;
12770;SDS011;6449;47.666;9.160;2022-11-20T00:35:59;6.87;;;5.13;;
12770;SDS011;6449;47.666;9.160;2022-11-20T00:40:54;5.87;;;5.00;;
12770;SDS011;6449;47.666;9.160;2022-11-20T00:45:49;5.93;;;4.30;;
12770;SDS011;6449;47.666;9.160;2022-11-20T00:50:43;5.83;;;4.97;;
12770;SDS011;6449;47.666;9.160;2022-11-20T00:55:38;6.50;;;4.90;;
12770;SDS011;6449;47.666;9.160;2022-11-20T01:00:32;6.37;;;4.93;;
12770;SDS011;6449;47.666;9.160;2022-11-20T01:05:25;6.70;;;4.80;;
12770;SDS011;6449;47.666;9.160;2022-11-20T01:10:19;6.63;;;4.70;;
12770;SDS011;6449;47.666;9.160;2022-11-20T01:15:13;6.43;;;4.90;;
12770;SDS011;6449;47.666;9.160;2022-11-20T01:20:07;6.93;;;4.53;;
12770;SDS011;6449;47.666;9.160;2022-11-20T01:25:02;6.50;;;4.77;;
12770;SDS011;6449;47.666;9.160;2022-11-20T01:29:56;5.80;;;4.70;;
12770;SDS011;6449;47.666;9.160;2022-11-20T01:34:53;6.23;;;4.80;;
12770;SDS011;6449;47.666;9.160;2022-11-20T01:39:46;5.30;;;4.60;;
12770;SDS011;6449;47.666;9.160;2022-11-20T01:44:45;8.07;;;4.40;;
12770;SDS011;6449;47.666;9.160;2022-11-20T01:49:47;6.67;;;4.60;;
12770;SDS011;6449;47.666;9.160;2022-11-20T01:54:49;6.93;;;4.63;;
12770;SDS011;6449;47.666;9.160;2022-11-20T01:59:53;5.03;;;4.47;;
12770;SDS011;6449;47.666;9.160;2022-11-20T02:04:54;5.33;;;4.23;;
12770;SDS011;6449;47.666;9.160;2022-11-20T02:09:56;6.23;;;3.87;;
12770;SDS011;6449;47.666;9.160;2022-11-20T02:14:50;6.70;;;3.90;;
12770;SDS011;6449;47.666;9.160;2022-11-20T02:19:43;5.90;;;3.90;;
12770;SDS011;6449;47.666;9.160;2022-11-20T02:24:40;3.93;;;3.53;;
12770;SDS011;6449;47.666;9.160;2022-11-20T02:29:38;7.20;;;4.03;;
12770;SDS011;6449;47.666;9.160;2022-11-20T02:34:37;4.20;;;3.80;;
12770;SDS011;6449;47.666;9.160;2022-11-20T02:39:31;4.70;;;4.17;;
12770;SDS011;6449;47.666;9.160;2022-11-20T02:44:25;5.40;;;3.60;;
12770;SDS011;6449;47.666;9.160;2022-11-20T02:49:19;4.00;;;3.37;;
12770;SDS011;6449;47.666;9.160;2022-11-20T02:54:12;4.10;;;3.20;;
12770;SDS011;6449;47.666;9.160;2022-11-20T02:59:06;5.70;;;3.40;;
12770;SDS011;6449;47.666;9.160;2022-11-20T03:04:01;5.20;;;3.37;;
12770;SDS011;6449;47.666;9.160;2022-11-20T03:08:55;3.80;;;3.37;;
12770;SDS011;6449;47.666;9.160;2022-11-20T03:13:48;4.57;;;4.00;;
12770;SDS011;6449;47.666;9.160;2022-11-20T03:18:42;4.13;;;3.73;;
12770;SDS011;6449;47.666;9.160;2022-11-20T03:23:37;4.93;;;3.00;;
12770;SDS011;6449;47.666;9.160;2022-11-20T03:28:31;3.90;;;3.30;;
12770;SDS011;6449;47.666;9.160;2022-11-20T03:33:27;3.93;;;3.47;;
12770;SDS011;6449;47.666;9.160;2022-11-20T03:38:20;4.43;;;3.60;;
12770;SDS011;6449;47.666;9.160;2022-11-20T03:43:15;4.00;;;3.60;;
12770;SDS011;6449;47.666;9.160;2022-11-20T03:48:08;4.53;;;3.60;;
12770;SDS011;6449;47.666;9.160;2022-11-20T03:53:02;5.53;;;4.17;;
12770;SDS011;6449;47.666;9.160;2022-11-20T03:57:55;5.97;;;3.87;;
12770;SDS011;6449;47.666;9.160;2022-11-20T04:02:50;5.10;;;3.50;;
12770;SDS011;6449;47.666;9.160;2022-11-20T04:07:43;5.47;;;4.37;;
12770;SDS011;6449;47.666;9.160;2022-11-20T04:12:36;5.87;;;4.03;;
12770;SDS011;6449;47.666;9.160;2022-11-20T04:17:29;5.37;;;3.90;;
12770;SDS011;6449;47.666;9.160;2022-11-20T04:22:24;4.87;;;4.03;;
12770;SDS011;6449;47.666;9.160;2022-11-20T04:27:17;5.07;;;3.63;;
12770;SDS011;6449;47.666;9.160;2022-11-20T04:32:11;6.30;;;3.83;;
12770;SDS011;6449;47.666;9.160;2022-11-20T04:37:04;4.23;;;3.77;;
12770;SDS011;6449;47.666;9.160;2022-11-20T04:41:59;3.73;;;3.30;;
12770;SDS011;6449;47.666;9.160;2022-11-20T04:47:09;4.10;;;3.27;;
12770;SDS011;6449;47.666;9.160;2022-11-20T04:52:03;3.83;;;3.27;;
12770;SDS011;6449;47.666;9.160;2022-11-20T04:56:56;7.47;;;4.20;;
12770;SDS011;6449;47.666;9.160;2022-11-20T05:01:51;3.67;;;3.10;;
12770;SDS011;6449;47.666;9.160;2022-11-20T05:06:44;4.43;;;3.73;;
12770;SDS011;6449;47.666;9.160;2022-11-20T05:11:37;4.00;;;3.03;;
12770;SDS011;6449;47.666;9.160;2022-11-20T05:16:33;5.27;;;3.30;;
12770;SDS011;6449;47.666;9.160;2022-11-20T05:21:29;5.50;;;3.40;;
12770;SDS011;6449;47.666;9.160;2022-11-20T05:26:23;3.10;;;2.80;;
12770;SDS011;6449;47.666;9.160;2022-11-20T05:31:17;4.73;;;3.00;;
12770;SDS011;6449;47.666;9.160;2022-11-20T05:36:19;3.03;;;2.60;;
12770;SDS011;6449;47.666;9.160;2022-11-20T05:41:13;3.67;;;2.53;;
12770;SDS011;6449;47.666;9.160;2022-11-20T05:46:09;3.20;;;2.77;;
12770;SDS011;6449;47.666;9.160;2022-11-20T05:51:06;3.77;;;2.90;;
12770;SDS011;6449;47.666;9.160;2022-11-20T05:56:05;2.70;;;2.40;;
12770;SDS011;6449;47.666;9.160;2022-11-20T06:01:08;4.40;;;2.90;;
12770;SDS011;6449;47.666;9.160;2022-11-20T06:06:06;4.60;;;3.03;;
12770;SDS011;6449;47.666;9.160;2022-11-20T06:11:07;3.63;;;2.83;;
12770;SDS011;6449;47.666;9.160;2022-11-20T06:16:02;3.10;;;2.70;;
12770;SDS011;6449;47.666;9.160;2022-11-20T06:21:00;3.50;;;2.70;;
12770;SDS011;6449;47.666;9.160;2022-11-20T06:25:55;2.73;;;2.53;;
12770;SDS011;6449;47.666;9.160;2022-11-20T06:30:50;3.70;;;3.13;;
12770;SDS011;6449;47.666;9.160;2022-11-20T06:35:44;3.13;;;2.83;;
12770;SDS011;6449;47.666;9.160;2022-11-20T06:40:39;3.00;;;2.70;;
12770;SDS011;6449;47.666;9.160;2022-11-20T06:45:35;3.60;;;3.10;;
12770;SDS011;6449;47.666;9.160;2022-11-20T06:50:30;3.73;;;2.90;;
12770;SDS011;6449;47.666;9.160;2022-11-20T06:55:24;3.17;;;2.73;;
12770;SDS011;6449;47.666;9.160;2022-11-20T07:00:17;3.67;;;3.00;;
12770;SDS011;6449;47.666;9.160;2022-11-20T07:05:10;4.10;;;3.03;;
12770;SDS011;6449;47.666;9.160;2022-11-20T07:10:05;4.00;;;3.20;;
12770;SDS011;6449;47.666;9.160;2022-11-20T07:15:00;6.00;;;2.80;;
12770;SDS011;6449;47.666;9.160;2022-11-20T07:19:53;3.57;;;3.00;;
12770;SDS011;6449;47.666;9.160;2022-11-20T07:24:47;4.20;;;3.70;;
12770;SDS011;6449;47.666;9.160;2022-11-20T07:29:42;3.27;;;2.97;;
12770;SDS011;6449;47.666;9.160;2022-11-20T07:34:35;3.43;;;2.97;;
12770;SDS011;6449;47.666;9.160;2022-11-20T07:39:28;3.30;;;3.00;;
12770;SDS011;6449;47.666;9.160;2022-11-20T07:44:21;3.13;;;2.50;;
12770;SDS011;6449;47.666;9.160;2022-11-20T07:49:16;3.57;;;2.80;;
12770;SDS011;6449;47.666;9.160;2022-11-20T07:54:10;3.43;;;2.80;;
12770;SDS011;6449;47.666;9.160;2022-11-20T07:59:03;4.40;;;2.90;;
12770;SDS011;6449;47.666;9.160;2022-11-20T08:03:56;4.67;;;2.30;;
12770;SDS011;6449;47.666;9.160;2022-11-20T08:08:51;3.73;;;2.20;;
12770;SDS011;6449;47.666;9.160;2022-11-20T08:13:45;3.53;;;1.90;;
12770;SDS011;6449;47.666;9.160;2022-11-20T08:18:56;2.17;;;2.00;;
12770;SDS011;6449;47.666;9.160;2022-11-20T08:23:49;3.93;;;2.10;;
12770;SDS011;6449;47.666;9.160;2022-11-20T08:28:44;3.23;;;2.40;;
12770;SDS011;6449;47.666;9.160;2022-11-20T08:33:37;2.67;;;2.20;;
12770;SDS011;6449;47.666;9.160;2022-11-20T08:38:31;3.80;;;2.40;;
12770;SDS011;6449;47.666;9.160;2022-11-20T08:43:26;2.70;;;2.43;;
12770;SDS011;6449;47.666;9.160;2022-11-20T08:48:20;3.07;;;2.20;;
12770;SDS011;6449;47.666;9.160;2022-11-20T08:53:13;2.93;;;2.47;;
12770;SDS011;6449;47.666;9.160;2022-11-20T08:58:07;3.17;;;2.37;;
12770;SDS011;6449;47.666;9.160;2022-11-20T09:03:03;2.93;;;2.10;;
12770;SDS011;6449;47.666;9.160;2022-11-20T09:07:56;2.50;;;2.30;;
12770;SDS011;6449;47.666;9.160;2022-11-20T09:12:51;3.70;;;2.73;;
12770;SDS011;6449;47.666;9.160;2022-11-20T09:17:50;2.90;;;2.30;;
12770;SDS011;6449;47.666;9.160;2022-11-20T09:22:46;3.80;;;2.20;;
12770;SDS011;6449;47.666;9.160;2022-11-20T09:27:42;3.13;;;2.10;;
12770;SDS011;6449;47.666;9.160;2022-11-20T09:32:38;3.97;;;2.13;;
12770;SDS011;6449;47.666;9.160;2022-11-20T09:37:41;3.53;;;2.13;;
12770;SDS011;6449;47.666;9.160;2022-11-20T09:42:38;4.03;;;2.10;;
12770;SDS011;6449;47.666;9.160;2022-11-20T09:47:48;2.20;;;1.57;;
12770;SDS011;6449;47.666;9.160;2022-11-20T09:53:13;3.10;;;1.67;;
12770;SDS011;6449;47.666;9.160;2022-11-20T09:58:25;2.20;;;1.73;;
12770;SDS011;6449;47.666;9.160;2022-11-20T10:03:39;1.87;;;1.77;;
12770;SDS011;6449;47.666;9.160;2022-11-20T10:09:32;2.70;;;1.60;;
12770;SDS011;6449;47.666;9.160;2022-11-20T10:15:12;2.67;;;1.80;;
12770;SDS011;6449;47.666;9.160;2022-11-20T10:20:30;1.60;;;1.50;;
12770;SDS011;6449;47.666;9.160;2022-11-20T10:26:13;1.97;;;1.60;;
12770;SDS011;6449;47.666;9.160;2022-11-20T10:31:23;1.60;;;1.43;;
12770;SDS011;6449;47.666;9.160;2022-11-20T10:36:25;1.67;;;1.30;;
12770;SDS011;6449;47.666;9.160;2022-11-20T10:41:38;6.00;;;1.60;;
12770;SDS011;6449;47.666;9.160;2022-11-20T10:46:40;2.37;;;1.30;;
12770;SDS011;6449;47.666;9.160;2022-11-20T10:51:39;1.40;;;1.30;;
12770;SDS011;6449;47.666;9.160;2022-11-20T10:56:47;2.50;;;1.70;;
12770;SDS011;6449;47.666;9.160;2022-11-20T11:01:44;1.60;;;1.50;;
12770;SDS011;6449;47.666;9.160;2022-11-20T11:06:42;1.50;;;1.40;;
12770;SDS011;6449;47.666;9.160;2022-11-20T11:11:53;1.40;;;1.30;;
12770;SDS011;6449;47.666;9.160;2022-11-20T11:16:58;2.50;;;1.47;;
12770;SDS011;6449;47.666;9.160;2022-11-20T11:21:53;3.07;;;1.80;;
12770;SDS011;6449;47.666;9.160;2022-11-20T11:26:56;1.40;;;1.30;;
12770;SDS011;6449;47.666;9.160;2022-11-20T11:32:04;1.73;;;1.60;;
12770;SDS011;6449;47.666;9.160;2022-11-20T11:37:04;1.87;;;1.60;;
12770;SDS011;6449;47.666;9.160;2022-11-20T11:42:07;2.97;;;1.90;;
12770;SDS011;6449;47.666;9.160;2022-11-20T11:47:22;1.90;;;1.60;;
12770;SDS011;6449;47.666;9.160;2022-11-20T11:52:18;1.67;;;1.50;;
12770;SDS011;6449;47.666;9.160;2022-11-20T11:57:17;2.00;;;1.80;;
12770;SDS011;6449;47.666;9.160;2022-11-20T12:02:29;2.90;;;1.80;;
12770;SDS011;6449;47.666;9.160;2022-11-20T12:07:34;2.87;;;1.77;;
12770;SDS011;6449;47.666;9.160;2022-11-20T12:12:38;1.67;;;1.30;;
12770;SDS011;6449;47.666;9.160;2022-11-20T12:17:39;1.43;;;1.33;;
12770;SDS011;6449;47.666;9.160;2022-11-20T12:22:34;2.90;;;1.53;;
12770;SDS011;6449;47.666;9.160;2022-11-20T12:27:44;2.43;;;1.30;;
12770;SDS011;6449;47.666;9.160;2022-11-20T12:44:25;2.27;;;1.50;;
12770;SDS011;6449;47.666;9.160;2022-11-20T12:50:11;1.92;;;1.63;;
12770;SDS011;6449;47.666;9.160;2022-11-20T12:56:17;1.60;;;1.30;;
12770;SDS011;6449;47.666;9.160;2022-11-20T13:01:30;1.87;;;1.27;;
12770;SDS011;6449;47.666;9.160;2022-11-20T13:06:37;4.27;;;1.50;;
12770;SDS011;6449;47.666;9.160;2022-11-20T13:11:35;1.47;;;1.17;;
12770;SDS011;6449;47.666;9.160;2022-11-20T13:16:58;1.40;;;1.20;;
12770;SDS011;6449;47.666;9.160;2022-11-20T13:21:59;2.57;;;1.30;;
12770;SDS011;6449;47.666;9.160;2022-11-20T13:27:05;3.20;;;1.37;;
12770;SDS011;6449;47.666;9.160;2022-11-20T13:32:24;1.70;;;1.30;;
12770;SDS011;6449;47.666;9.160;2022-11-20T13:37:30;2.40;;;1.20;;
12770;SDS011;6449;47.666;9.160;2022-11-20T13:42:27;2.23;;;1.10;;
12770;SDS011;6449;47.666;9.160;2022-11-20T13:47:21;1.20;;;1.10;;
12770;SDS011;6449;47.666;9.160;2022-11-20T13:52:33;1.47;;;1.37;;
12770;SDS011;6449;47.666;9.160;2022-11-20T13:57:50;2.30;;;1.30;;
12770;SDS011;6449;47.666;9.160;2022-11-20T14:03:07;2.67;;;1.50;;
12770;SDS011;6449;47.666;9.160;2022-11-20T14:08:36;2.07;;;1.27;;
12770;SDS011;6449;47.666;9.160;2022-11-20T14:13:36;1.30;;;1.20;;
12770;SDS011;6449;47.666;9.160;2022-11-20T14:18:30;1.83;;;1.20;;
12770;SDS011;6449;47.666;9.160;2022-11-20T14:23:27;1.57;;;1.30;;
12770;SDS011;6449;47.666;9.160;2022-11-20T14:28:25;1.47;;;1.20;;
12770;SDS011;6449;47.666;9.160;2022-11-20T14:33:37;1.50;;;1.00;;
12770;SDS011;6449;47.666;9.160;2022-11-20T14:38:49;4.37;;;1.07;;
12770;SDS011;6449;47.666;9.160;2022-11-20T14:43:49;1.70;;;0.97;;
12770;SDS011;6449;47.666;9.160;2022-11-20T14:48:50;1.67;;;1.53;;
12770;SDS011;6449;47.666;9.160;2022-11-20T14:53:49;1.13;;;1.00;;
12770;SDS011;6449;47.666;9.160;2022-11-20T14:58:43;4.10;;;1.00;;
12770;SDS011;6449;47.666;9.160;2022-11-20T15:03:57;1.53;;;1.00;;
12770;SDS011;6449;47.666;9.160;2022-11-20T15:09:02;1.77;;;0.97;;
12770;SDS011;6449;47.666;9.160;2022-11-20T15:14:03;1.30;;;0.97;;
12770;SDS011;6449;47.666;9.160;2022-11-20T15:19:01;1.30;;;1.20;;
12770;SDS011;6449;47.666;9.160;2022-11-20T15:24:09;2.10;;;1.83;;
12770;SDS011;6449;47.666;9.160;2022-11-20T15:29:08;1.50;;;1.40;;
12770;SDS011;6449;47.666;9.160;2022-11-20T15:34:04;1.57;;;1.27;;
12770;SDS011;6449;47.666;9.160;2022-11-20T15:39:03;2.10;;;1.30;;
12770;SDS011;6449;47.666;9.160;2022-11-20T15:43:58;5.80;;;3.83;;
12770;SDS011;6449;47.666;9.160;2022-11-20T15:48:53;5.93;;;4.50;;
12770;SDS011;6449;47.666;9.160;2022-11-20T15:53:49;4.93;;;3.40;;
12770;SDS011;6449;47.666;9.160;2022-11-20T15:58:43;4.87;;;4.20;;
12770;SDS011;6449;47.666;9.160;2022-11-20T16:03:53;8.70;;;7.80;;
12770;SDS011;6449;47.666;9.160;2022-11-20T16:08:48;17.90;;;14.30;;
12770;SDS011;6449;47.666;9.160;2022-11-20T16:13:41;16.20;;;13.87;;
12770;SDS011;6449;47.666;9.160;2022-11-20T16:18:56;7.73;;;5.40;;
12770;SDS011;6449;47.666;9.160;2022-11-20T16:23:51;3.67;;;3.07;;
12770;SDS011;6449;47.666;9.160;2022-11-20T16:28:44;5.03;;;3.23;;
12770;SDS011;6449;47.666;9.160;2022-11-20T16:33:38;9.60;;;3.17;;
12770;SDS011;6449;47.666;9.160;2022-11-20T16:38:33;3.73;;;2.70;;
12770;SDS011;6449;47.666;9.160;2022-11-20T16:43:27;5.53;;;2.83;;
12770;SDS011;6449;47.666;9.160;2022-11-20T16:48:20;3.40;;;2.93;;
12770;SDS011;6449;47.666;9.160;2022-11-20T16:53:14;5.77;;;3.37;;
12770;SDS011;6449;47.666;9.160;2022-11-20T16:58:09;7.43;;;3.43;;
12770;SDS011;6449;47.666;9.160;2022-11-20T17:03:08;5.67;;;3.50;;
12770;SDS011;6449;47.666;9.160;2022-11-20T17:08:02;34.67;;;23.17;;
12770;SDS011;6449;47.666;9.160;2022-11-20T17:12:56;93.90;;;52.43;;
12770;SDS011;6449;47.666;9.160;2022-11-20T17:17:51;42.40;;;25.20;;
12770;SDS011;6449;47.666;9.160;2022-11-20T17:22:44;11.87;;;7.97;;
12770;SDS011;6449;47.666;9.160;2022-11-20T17:27:37;6.80;;;4.00;;
12770;SDS011;6449;47.666;9.160;2022-11-20T17:32:31;5.20;;;3.17;;
12770;SDS011;6449;47.666;9.160;2022-11-20T17:37:26;5.20;;;3.93;;
12770;SDS011;6449;47.666;9.160;2022-11-20T17:42:19;6.20;;;4.87;;
12770;SDS011;6449;47.666;9.160;2022-11-20T17:47:20;5.77;;;4.13;;
12770;SDS011;6449;47.666;9.160;2022-11-20T17:52:13;5.20;;;3.57;;
12770;SDS011;6449;47.666;9.160;2022-11-20T17:57:08;3.97;;;3.10;;
12770;SDS011;6449;47.666;9.160;2022-11-20T18:02:19;3.80;;;3.40;;
12770;SDS011;6449;47.666;9.160;2022-11-20T18:07:12;5.87;;;4.10;;
12770;SDS011;6449;47.666;9.160;2022-11-20T18:12:06;7.00;;;4.30;;
12770;SDS011;6449;47.666;9.160;2022-11-20T18:17:02;5.83;;;4.43;;
12770;SDS011;6449;47.666;9.160;2022-11-20T18:21:58;6.63;;;4.67;;
12770;SDS011;6449;47.666;9.160;2022-11-20T18:26:52;4.73;;;4.23;;
12770;SDS011;6449;47.666;9.160;2022-11-20T18:31:47;7.73;;;4.87;;
12770;SDS011;6449;47.666;9.160;2022-11-20T18:36:40;11.13;;;8.53;;
12770;SDS011;6449;47.666;9.160;2022-11-20T18:41:35;14.97;;;11.73;;
12770;SDS011;6449;47.666;9.160;2022-11-20T18:46:48;10.27;;;7.10;;
12770;SDS011;6449;47.666;9.160;2022-11-20T18:51:42;7.20;;;5.20;;
12770;SDS011;6449;47.666;9.160;2022-11-20T18:56:35;6.10;;;3.90;;
12770;SDS011;6449;47.666;9.160;2022-11-20T19:01:29;6.90;;;4.70;;
12770;SDS011;6449;47.666;9.160;2022-11-20T19:06:30;4.50;;;4.10;;
12770;SDS011;6449;47.666;9.160;2022-11-20T19:11:23;4.57;;;4.17;;
12770;SDS011;6449;47.666;9.160;2022-11-20T19:16:20;4.83;;;4.10;;
12770;SDS011;6449;47.666;9.160;2022-11-20T19:21:20;5.17;;;3.80;;
12770;SDS011;6449;47.666;9.160;2022-11-20T19:26:19;4.97;;;3.83;;
12770;SDS011;6449;47.666;9.160;2022-11-20T19:31:18;7.80;;;3.43;;
12770;SDS011;6449;47.666;9.160;2022-11-20T19:36:22;5.70;;;3.37;;
12770;SDS011;6449;47.666;9.160;2022-11-20T19:41:28;4.20;;;2.87;;
12770;SDS011;6449;47.666;9.160;2022-11-20T19:46:29;4.17;;;2.90;;
12770;SDS011;6449;47.666;9.160;2022-11-20T19:51:43;3.40;;;2.80;;
12770;SDS011;6449;47.666;9.160;2022-11-20T19:56:51;3.70;;;3.00;;
12770;SDS011;6449;47.666;9.160;2022-11-20T20:01:45;2.40;;;2.20;;
12770;SDS011;6449;47.666;9.160;2022-11-20T20:06:39;2.03;;;1.90;;
12770;SDS011;6449;47.666;9.160;2022-11-20T20:11:36;3.70;;;2.30;;
12770;SDS011;6449;47.666;9.160;2022-11-20T20:16:56;2.70;;;2.27;;
12770;SDS011;6449;47.666;9.160;2022-11-20T20:21:58;3.73;;;2.07;;
12770;SDS011;6449;47.666;9.160;2022-11-20T20:27:35;4.17;;;2.33;;
12770;SDS011;6449;47.666;9.160;2022-11-20T20:32:43;4.00;;;2.50;;
12770;SDS011;6449;47.666;9.160;2022-11-20T20:37:45;2.43;;;2.20;;
12770;SDS011;6449;47.666;9.160;2022-11-20T20:42:45;4.03;;;2.80;;
12770;SDS011;6449;47.666;9.160;2022-11-20T20:47:46;2.13;;;2.03;;
12770;SDS011;6449;47.666;9.160;2022-11-20T20:52:48;2.03;;;1.73;;
12770;SDS011;6449;47.666;9.160;2022-11-20T20:57:44;1.40;;;1.30;;
12770;SDS011;6449;47.666;9.160;2022-11-20T21:03:01;1.77;;;1.67;;
12770;SDS011;6449;47.666;9.160;2022-11-20T21:08:48;3.40;;;1.50;;
12770;SDS011;6449;47.666;9.160;2022-11-20T21:13:52;2.50;;;1.90;;
12770;SDS011;6449;47.666;9.160;2022-11-20T21:18:47;2.43;;;2.23;;
12770;SDS011;6449;47.666;9.160;2022-11-20T21:23:53;2.50;;;1.70;;
12770;SDS011;6449;47.666;9.160;2022-11-20T21:39:29;2.10;;;1.90;;
12770;SDS011;6449;47.666;9.160;2022-11-20T21:44:44;2.63;;;1.70;;
12770;SDS011;6449;47.666;9.160;2022-11-20T21:49:39;2.23;;;1.87;;
12770;SDS011;6449;47.666;9.160;2022-11-20T21:54:33;2.20;;;2.00;;
12770;SDS011;6449;47.666;9.160;2022-11-20T21:59:33;1.60;;;1.50;;
12770;SDS011;6449;47.666;9.160;2022-11-20T22:04:31;2.63;;;1.70;;
12770;SDS011;6449;47.666;9.160;2022-11-20T22:09:49;1.80;;;1.70;;
12770;SDS011;6449;47.666;9.160;2022-11-20T22:14:43;2.07;;;1.90;;
12770;SDS011;6449;47.666;9.160;2022-11-20T22:19:39;1.93;;;1.80;;
12770;SDS011;6449;47.666;9.160;2022-11-20T22:24:36;1.70;;;1.60;;
12770;SDS011;6449;47.666;9.160;2022-11-20T22:29:29;1.87;;;1.70;;
12770;SDS011;6449;47.666;9.160;2022-11-20T22:34:23;1.60;;;1.47;;
12770;SDS011;6449;47.666;9.160;2022-11-20T22:39:20;1.83;;;1.40;;
12770;SDS011;6449;47.666;9.160;2022-11-20T22:44:26;1.70;;;1.60;;
12770;SDS011;6449;47.666;9.160;2022-11-20T22:49:57;1.50;;;1.40;;
12770;SDS011;6449;47.666;9.160;2022-11-20T22:55:44;2.20;;;1.73;;
12770;SDS011;6449;47.666;9.160;2022-11-20T23:01:17;1.57;;;1.47;;
12770;SDS011;6449;47.666;9.160;2022-11-20T23:06:19;1.50;;;1.40;;
12770;SDS011;6449;47.666;9.160;2022-11-20T23:11:15;1.50;;;1.40;;
12770;SDS011;6449;47.666;9.160;2022-11-20T23:16:11;1.73;;;1.60;;
12770;SDS011;6449;47.666;9.160;2022-11-20T23:21:09;1.33;;;1.23;;
12770;SDS011;6449;47.666;9.160;2022-11-20T23:26:05;1.50;;;1.40;;
12770;SDS011;6449;47.666;9.160;2022-11-20T23:31:07;2.57;;;1.50;;
12770;SDS011;6449;47.666;9.160;2022-11-20T23:36:20;1.53;;;1.43;;
12770;SDS011;6449;47.666;9.160;2022-11-20T23:41:46;1.40;;;1.30;;
12770;SDS011;6449;47.666;9.160;2022-11-20T23:46:39;1.60;;;1.50;;
12770;SDS011;6449;47.666;9.160;2022-11-20T23:51:39;2.30;;;1.80;;
12770;SDS011;6449;47.666;9.160;2022-11-20T23:56:41;1.60;;;1.50;;
